createdAt,value
2017-06-12T00:00:25.638Z,3.97
2017-06-12T00:02:53.977Z,1.63
2017-06-12T00:05:21.554Z,5.53
2017-06-12T00:07:49.170Z,6.00
2017-06-12T00:10:16.745Z,6.30
2017-06-12T00:12:44.338Z,3.30
2017-06-12T00:15:11.898Z,2.47
2017-06-12T00:17:39.473Z,4.03
2017-06-12T00:20:07.063Z,2.60
2017-06-12T00:22:34.658Z,7.00
2017-06-12T00:25:02.242Z,4.23
2017-06-12T00:27:29.821Z,2.73
2017-06-12T00:29:57.381Z,4.50
2017-06-12T00:32:25.749Z,3.97
2017-06-12T00:34:53.309Z,10.50
2017-06-12T00:37:20.889Z,3.93
2017-06-12T00:39:49.225Z,4.90
2017-06-12T00:42:16.806Z,5.70
2017-06-12T00:44:44.382Z,4.60
2017-06-12T00:47:12.723Z,8.03
2017-06-12T00:49:40.474Z,4.30
2017-06-12T00:52:08.023Z,3.20
2017-06-12T00:54:35.597Z,4.57
2017-06-12T00:57:03.150Z,6.30
2017-06-12T00:59:30.706Z,6.23
2017-06-12T01:01:58.282Z,5.03
2017-06-12T01:04:25.842Z,6.37
2017-06-12T01:06:53.435Z,5.93
2017-06-12T01:09:20.994Z,12.60
2017-06-12T01:11:48.634Z,8.60
2017-06-12T01:14:16.197Z,6.27
2017-06-12T01:16:43.772Z,4.73
2017-06-12T01:19:11.396Z,4.33
2017-06-12T01:21:38.939Z,4.80
2017-06-12T01:24:06.532Z,9.43
2017-06-12T01:26:34.104Z,5.57
2017-06-12T01:29:01.733Z,7.70
2017-06-12T01:31:29.318Z,3.67
2017-06-12T01:33:56.907Z,4.43
2017-06-12T01:36:24.477Z,5.53
2017-06-12T01:38:52.060Z,4.87
2017-06-12T01:41:19.609Z,4.30
2017-06-12T01:43:47.931Z,5.93
2017-06-12T01:46:15.529Z,13.43
2017-06-12T01:48:43.097Z,6.63
2017-06-12T01:51:10.733Z,5.47
2017-06-12T01:53:38.294Z,3.03
2017-06-12T01:56:05.873Z,5.57
2017-06-12T01:58:33.437Z,6.90
2017-06-12T02:01:00.994Z,4.43
2017-06-12T02:03:28.589Z,6.73
2017-06-12T02:05:56.149Z,8.43
2017-06-12T02:08:24.478Z,11.50
2017-06-12T02:10:52.085Z,7.43
2017-06-12T02:13:19.650Z,9.83
2017-06-12T02:15:48.084Z,6.77
2017-06-12T02:18:15.658Z,9.40
2017-06-12T02:20:43.209Z,5.03
2017-06-12T02:23:10.861Z,5.20
2017-06-12T02:25:38.426Z,5.60
2017-06-12T02:28:05.999Z,5.70
2017-06-12T02:30:33.582Z,6.60
2017-06-12T02:33:01.126Z,3.67
2017-06-12T02:35:28.726Z,4.93
2017-06-12T02:37:56.386Z,4.27
2017-06-12T02:40:23.964Z,9.37
2017-06-12T02:42:51.557Z,3.67
2017-06-12T02:45:19.122Z,6.57
2017-06-12T02:47:46.673Z,3.70
2017-06-12T02:50:14.257Z,4.63
2017-06-12T02:52:41.827Z,4.73
2017-06-12T02:55:09.383Z,9.73
2017-06-12T02:57:36.966Z,8.33
2017-06-12T03:00:05.281Z,6.30
2017-06-12T03:02:32.844Z,5.90
2017-06-12T03:05:00.425Z,5.47
2017-06-12T03:07:28.078Z,4.93
2017-06-12T03:10:07.197Z,9.10
2017-06-12T03:12:34.817Z,7.67
2017-06-12T03:15:02.501Z,5.20
2017-06-12T03:17:30.061Z,7.17
2017-06-12T03:19:57.654Z,5.93
2017-06-12T03:22:25.227Z,12.13
2017-06-12T03:24:52.775Z,6.77
2017-06-12T03:27:20.366Z,3.17
2017-06-12T03:29:47.942Z,3.30
2017-06-12T03:32:15.538Z,6.00
2017-06-12T03:34:43.146Z,4.23
2017-06-12T03:37:10.763Z,7.57
2017-06-12T03:39:38.342Z,5.07
2017-06-12T03:42:05.900Z,3.20
2017-06-12T03:44:33.463Z,5.60
2017-06-12T03:47:01.023Z,8.50
2017-06-12T03:49:28.593Z,3.77
2017-06-12T03:51:56.175Z,7.80
2017-06-12T03:54:23.762Z,5.97
2017-06-12T03:56:52.112Z,13.10
2017-06-12T03:59:19.678Z,5.60
2017-06-12T04:01:47.230Z,7.93
2017-06-12T04:04:14.854Z,11.97
2017-06-12T04:06:42.438Z,7.83
2017-06-12T04:09:10.026Z,5.20
2017-06-12T04:11:37.593Z,4.70
2017-06-12T04:14:05.948Z,5.53
2017-06-12T04:16:33.521Z,3.70
2017-06-12T04:19:01.108Z,3.60
2017-06-12T04:21:29.442Z,5.07
2017-06-12T04:23:56.998Z,5.00
2017-06-12T04:26:24.568Z,3.90
2017-06-12T04:28:52.166Z,4.80
2017-06-12T04:31:20.530Z,8.07
2017-06-12T04:33:48.090Z,8.03
2017-06-12T04:36:15.660Z,6.03
2017-06-12T04:38:43.241Z,9.60
2017-06-12T04:41:10.805Z,12.50
2017-06-12T04:43:38.372Z,10.50
2017-06-12T04:46:05.969Z,12.77
2017-06-12T04:48:33.535Z,9.03
2017-06-12T04:51:01.095Z,7.77
2017-06-12T04:53:28.690Z,6.93
2017-06-12T04:55:56.249Z,7.00
2017-06-12T04:58:23.809Z,9.70
2017-06-12T05:00:51.398Z,9.40
2017-06-12T05:03:19.077Z,8.80
2017-06-12T05:05:46.638Z,7.60
2017-06-12T05:08:14.238Z,16.97
2017-06-12T05:10:41.822Z,7.17
2017-06-12T05:13:09.378Z,9.90
2017-06-12T05:15:36.937Z,9.93
2017-06-12T05:18:05.286Z,12.37
2017-06-12T05:20:32.883Z,8.73
2017-06-12T05:23:01.245Z,8.27
2017-06-12T05:25:28.813Z,14.13
2017-06-12T05:27:56.734Z,15.83
2017-06-12T05:30:24.442Z,13.20
2017-06-12T05:32:52.005Z,19.37
2017-06-12T05:35:19.560Z,14.60
2017-06-12T05:37:47.137Z,21.17
2017-06-12T05:40:15.459Z,15.13
2017-06-12T05:42:43.041Z,16.07
2017-06-12T05:45:10.609Z,16.80
2017-06-12T05:47:38.173Z,12.53
2017-06-12T05:50:05.766Z,15.57
2017-06-12T05:52:33.338Z,11.17
2017-06-12T05:55:00.895Z,10.53
2017-06-12T05:57:28.480Z,15.83
2017-06-12T05:59:56.038Z,13.40
2017-06-12T06:02:23.610Z,10.60
2017-06-12T06:04:51.199Z,10.93
2017-06-12T06:07:18.761Z,12.53
2017-06-12T06:09:46.321Z,9.53
2017-06-12T06:12:13.920Z,15.83
2017-06-12T06:14:41.587Z,12.57
2017-06-12T06:17:09.186Z,14.37
2017-06-12T06:19:36.770Z,11.73
2017-06-12T06:22:04.417Z,19.20
2017-06-12T06:24:32.003Z,19.70
2017-06-12T06:26:59.557Z,15.00
2017-06-12T06:29:27.148Z,13.20
2017-06-12T06:31:54.735Z,19.00
2017-06-12T06:34:22.320Z,17.00
2017-06-12T06:36:49.898Z,18.07
2017-06-12T06:39:17.462Z,13.77
2017-06-12T06:41:45.066Z,16.00
2017-06-12T06:44:12.662Z,15.87
2017-06-12T06:46:40.227Z,18.77
2017-06-12T06:49:07.786Z,18.07
2017-06-12T06:51:35.384Z,22.13
2017-06-12T06:54:03.778Z,20.93
2017-06-12T06:56:31.341Z,20.33
2017-06-12T06:58:58.941Z,17.50
2017-06-12T07:01:26.556Z,20.47
2017-06-12T07:03:54.902Z,16.80
2017-06-12T07:06:22.470Z,20.07
2017-06-12T07:08:50.162Z,23.10
2017-06-12T07:11:18.490Z,24.57
2017-06-12T07:13:46.061Z,17.00
2017-06-12T07:16:13.656Z,21.20
2017-06-12T07:18:41.220Z,15.47
2017-06-12T07:21:09.544Z,20.17
2017-06-12T07:23:37.222Z,16.43
2017-06-12T07:26:04.778Z,18.63
2017-06-12T07:28:32.365Z,13.97
2017-06-12T07:30:59.942Z,22.93
2017-06-12T07:33:28.265Z,21.17
2017-06-12T07:35:55.902Z,21.77
2017-06-12T07:38:23.465Z,21.90
2017-06-12T07:40:51.072Z,15.70
2017-06-12T07:43:18.676Z,14.37
2017-06-12T07:45:46.237Z,17.33
2017-06-12T07:48:13.814Z,17.03
2017-06-12T07:50:41.399Z,14.97
2017-06-12T07:53:08.977Z,21.53
2017-06-12T07:55:36.540Z,19.40
2017-06-12T07:58:04.119Z,18.93
2017-06-12T08:00:31.703Z,21.63
2017-06-12T08:02:59.317Z,22.47
2017-06-12T08:05:26.886Z,16.47
2017-06-12T08:07:54.453Z,17.80
2017-06-12T08:10:22.034Z,19.67
2017-06-12T08:12:49.597Z,25.73
2017-06-12T08:15:17.182Z,15.23
2017-06-12T08:17:44.749Z,12.70
2017-06-12T08:20:12.346Z,17.93
2017-06-12T08:22:40.026Z,13.57
2017-06-12T08:25:07.590Z,15.40
2017-06-12T08:27:35.170Z,16.37
2017-06-12T08:30:02.809Z,16.70
2017-06-12T08:32:30.380Z,29.70
2017-06-12T08:34:57.949Z,13.40
2017-06-12T08:37:26.312Z,14.33
2017-06-12T08:39:53.880Z,16.47
2017-06-12T08:42:21.454Z,13.33
2017-06-12T08:44:49.828Z,10.60
2017-06-12T08:47:17.391Z,15.23
2017-06-12T08:49:45.734Z,12.30
2017-06-12T08:52:13.349Z,14.00
2017-06-12T08:54:40.922Z,12.37
2017-06-12T08:57:08.492Z,11.30
2017-06-12T08:59:36.058Z,19.20
2017-06-12T09:02:03.637Z,18.03
2017-06-12T09:04:31.266Z,14.10
2017-06-12T09:06:58.896Z,15.10
2017-06-12T09:09:26.493Z,17.53
2017-06-12T09:11:54.122Z,12.27
2017-06-12T09:14:22.502Z,13.67
2017-06-12T09:16:50.881Z,14.30
2017-06-12T09:19:18.437Z,18.70
2017-06-12T09:21:46.024Z,12.50
2017-06-12T09:24:13.618Z,11.33
2017-06-12T09:26:41.170Z,19.67
2017-06-12T09:29:08.770Z,13.73
2017-06-12T09:31:36.353Z,9.63
2017-06-12T09:34:04.670Z,11.67
2017-06-12T09:36:32.640Z,14.63
2017-06-12T09:39:00.210Z,18.13
2017-06-12T09:41:27.839Z,16.30
2017-06-12T09:43:55.398Z,12.17
2017-06-12T09:46:23.718Z,9.73
2017-06-12T09:48:51.316Z,12.93
2017-06-12T09:51:18.865Z,9.10
2017-06-12T09:53:46.516Z,9.13
2017-06-12T09:56:14.081Z,11.63
2017-06-12T09:58:41.655Z,10.87
2017-06-12T10:01:09.253Z,14.50
2017-06-12T10:03:36.844Z,10.73
2017-06-12T10:06:04.406Z,16.07
2017-06-12T10:08:32.094Z,14.13
2017-06-12T10:10:59.656Z,11.80
2017-06-12T10:13:27.224Z,7.20
2017-06-12T10:15:54.830Z,10.50
2017-06-12T10:18:22.410Z,12.93
2017-06-12T10:20:49.979Z,13.80
2017-06-12T10:23:17.582Z,13.80
2017-06-12T10:25:45.157Z,8.10
2017-06-12T10:28:12.739Z,7.73
2017-06-12T10:30:40.402Z,7.73
2017-06-12T10:33:07.996Z,8.60
2017-06-12T10:35:35.561Z,8.90
2017-06-12T10:38:03.150Z,13.17
2017-06-12T10:40:31.594Z,11.33
2017-06-12T10:42:59.153Z,11.33
2017-06-12T10:45:26.746Z,12.83
2017-06-12T10:47:54.308Z,12.57
2017-06-12T10:50:21.882Z,8.70
2017-06-12T10:52:49.511Z,10.80
2017-06-12T10:55:17.082Z,9.10
2017-06-12T10:57:44.653Z,17.57
2017-06-12T11:00:13.050Z,6.73
2017-06-12T11:02:40.630Z,10.57
2017-06-12T11:05:08.201Z,12.03
2017-06-12T11:07:35.815Z,13.60
2017-06-12T11:10:03.409Z,11.40
2017-06-12T11:12:30.981Z,12.60
2017-06-12T11:14:58.554Z,11.13
2017-06-12T11:17:26.110Z,9.60
2017-06-12T11:19:53.700Z,8.70
2017-06-12T11:22:21.263Z,8.80
2017-06-12T11:24:48.821Z,6.23
2017-06-12T11:27:16.454Z,10.60
2017-06-12T11:29:44.069Z,13.00
2017-06-12T11:32:12.423Z,8.33
2017-06-12T11:34:40.060Z,8.40
2017-06-12T11:37:07.651Z,11.03
2017-06-12T11:39:35.213Z,11.23
2017-06-12T11:42:02.790Z,7.83
2017-06-12T11:44:30.366Z,10.40
2017-06-12T11:46:57.942Z,8.93
2017-06-12T11:49:25.521Z,9.47
2017-06-12T11:51:53.094Z,11.30
2017-06-12T11:54:20.660Z,9.80
2017-06-12T11:56:48.230Z,7.50
2017-06-12T11:59:15.797Z,11.33
2017-06-12T12:01:43.368Z,10.37
2017-06-12T12:04:10.969Z,12.23
2017-06-12T12:06:38.561Z,13.87
2017-06-12T12:09:07.047Z,12.57
2017-06-12T12:11:34.615Z,11.00
2017-06-12T12:14:02.194Z,16.73
2017-06-12T12:16:29.779Z,12.87
2017-06-12T12:18:57.349Z,12.87
2017-06-12T12:21:24.900Z,10.87
2017-06-12T12:23:52.523Z,20.80
2017-06-12T12:26:20.084Z,13.27
2017-06-12T12:28:47.656Z,14.00
2017-06-12T12:31:15.213Z,8.17
2017-06-12T12:33:42.779Z,9.30
2017-06-12T12:36:10.382Z,13.07
2017-06-12T12:38:37.946Z,18.50
2017-06-12T12:41:05.531Z,9.60
2017-06-12T12:43:33.109Z,13.03
2017-06-12T12:46:00.677Z,9.70
2017-06-12T12:48:28.269Z,9.53
2017-06-12T12:50:55.846Z,9.33
2017-06-12T12:53:23.403Z,11.97
2017-06-12T12:55:50.986Z,8.50
2017-06-12T12:58:19.371Z,12.97
2017-06-12T13:00:46.944Z,9.77
2017-06-12T13:03:14.537Z,14.73
2017-06-12T13:05:42.110Z,11.13
2017-06-12T13:08:10.461Z,10.40
2017-06-12T13:10:38.043Z,8.93
2017-06-12T13:13:05.612Z,12.23
2017-06-12T13:15:33.975Z,10.67
2017-06-12T13:18:01.532Z,10.30
2017-06-12T13:20:29.110Z,14.30
2017-06-12T13:22:56.751Z,10.27
2017-06-12T13:25:24.346Z,13.23
2017-06-12T13:27:52.665Z,9.27
2017-06-12T13:30:20.509Z,14.43
2017-06-12T13:32:48.096Z,11.90
2017-06-12T13:35:15.711Z,12.10
2017-06-12T13:37:44.079Z,11.00
2017-06-12T13:40:11.638Z,12.63
2017-06-12T13:42:39.237Z,9.30
2017-06-12T13:45:06.814Z,12.53
2017-06-12T13:47:34.403Z,13.00
2017-06-12T13:50:02.009Z,13.80
2017-06-12T13:52:29.581Z,12.23
2017-06-12T13:54:57.183Z,10.07
2017-06-12T13:57:24.754Z,16.53
2017-06-12T13:59:52.326Z,12.27
2017-06-12T14:02:19.878Z,14.87
2017-06-12T14:04:47.401Z,11.30
2017-06-12T14:07:15.006Z,12.07
2017-06-12T14:09:42.582Z,13.60
2017-06-12T14:12:10.146Z,13.90
2017-06-12T14:14:39.237Z,15.00
2017-06-12T14:17:06.807Z,13.53
2017-06-12T14:19:34.462Z,16.47
2017-06-12T14:22:02.917Z,17.50
2017-06-12T14:24:30.482Z,16.57
2017-06-12T14:26:58.105Z,10.67
2017-06-12T14:29:25.672Z,12.10
2017-06-12T14:31:53.245Z,10.87
2017-06-12T14:34:20.824Z,14.07
2017-06-12T14:36:48.482Z,15.60
2017-06-12T14:39:16.322Z,11.30
2017-06-12T14:41:43.899Z,13.93
2017-06-12T14:44:11.474Z,11.63
2017-06-12T14:46:39.073Z,11.40
2017-06-12T14:49:06.614Z,13.80
2017-06-12T14:51:34.978Z,15.70
2017-06-12T14:54:02.582Z,15.23
2017-06-12T14:56:30.146Z,17.20
2017-06-12T14:58:57.786Z,16.00
2017-06-12T15:01:26.138Z,14.50
2017-06-12T15:03:53.710Z,18.93
2017-06-12T15:06:21.269Z,15.00
2017-06-12T15:08:48.856Z,17.87
2017-06-12T15:11:16.433Z,14.47
2017-06-12T15:13:43.989Z,14.70
2017-06-12T15:16:11.635Z,16.30
2017-06-12T15:18:39.974Z,15.77
2017-06-12T15:21:07.571Z,13.13
2017-06-12T15:23:35.898Z,19.37
2017-06-12T15:26:03.483Z,16.53
2017-06-12T15:28:31.066Z,17.20
2017-06-12T15:30:59.802Z,22.37
2017-06-12T15:33:27.467Z,24.07
2017-06-12T15:35:55.028Z,14.70
2017-06-12T15:38:22.649Z,12.80
2017-06-12T15:40:50.990Z,15.10
2017-06-12T15:43:18.555Z,20.50
2017-06-12T15:45:46.150Z,17.67
2017-06-12T15:48:13.730Z,13.83
2017-06-12T15:50:41.296Z,13.20
2017-06-12T15:53:08.880Z,15.63
2017-06-12T15:55:36.547Z,13.50
2017-06-12T15:58:04.146Z,17.73
2017-06-12T16:00:31.737Z,12.10
2017-06-12T16:02:59.320Z,19.27
2017-06-12T16:05:26.921Z,14.93
2017-06-12T16:07:54.489Z,24.07
2017-06-12T16:10:22.108Z,12.37
2017-06-12T16:12:50.202Z,17.93
2017-06-12T16:15:17.797Z,27.77
2017-06-12T16:17:46.216Z,17.90
2017-06-12T16:20:13.785Z,19.80
2017-06-12T16:22:41.368Z,17.10
2017-06-12T16:25:08.962Z,15.40
2017-06-12T16:27:37.309Z,14.57
2017-06-12T16:30:04.870Z,16.20
2017-06-12T16:32:32.490Z,13.70
2017-06-12T16:35:00.089Z,22.30
2017-06-12T16:37:27.652Z,13.40
2017-06-12T16:39:55.223Z,16.77
2017-06-12T16:42:22.826Z,17.67
2017-06-12T16:44:50.399Z,20.47
2017-06-12T16:47:18.726Z,13.67
2017-06-12T16:49:46.349Z,14.20
2017-06-12T16:52:13.945Z,13.13
2017-06-12T16:54:41.535Z,10.20
2017-06-12T16:57:09.129Z,13.13
2017-06-12T16:59:36.694Z,14.40
2017-06-12T17:02:04.382Z,15.73
2017-06-12T17:04:31.971Z,17.70
2017-06-12T17:07:00.354Z,14.00
2017-06-12T17:09:28.735Z,16.80
2017-06-12T17:11:56.305Z,12.33
2017-06-12T17:14:23.898Z,16.00
2017-06-12T17:16:51.499Z,14.73
2017-06-12T17:19:19.700Z,16.13
2017-06-12T17:21:48.828Z,12.67
2017-06-12T17:24:16.471Z,12.60
2017-06-12T17:26:44.790Z,15.10
2017-06-12T17:29:12.380Z,13.13
2017-06-12T17:31:39.962Z,14.13
2017-06-12T17:34:07.545Z,16.40
2017-06-12T17:36:35.111Z,8.40
2017-06-12T17:39:02.732Z,10.80
2017-06-12T17:41:30.298Z,14.60
2017-06-12T17:43:58.731Z,12.23
2017-06-12T17:46:26.289Z,14.63
2017-06-12T17:48:53.858Z,11.97
2017-06-12T17:51:21.446Z,10.33
2017-06-12T17:53:49.021Z,16.20
2017-06-12T17:56:17.382Z,19.93
2017-06-12T17:58:44.970Z,12.07
2017-06-12T18:01:12.568Z,16.73
2017-06-12T18:03:40.170Z,17.67
2017-06-12T18:06:07.735Z,13.93
2017-06-12T18:08:35.294Z,13.87
2017-06-12T18:11:02.908Z,16.47
2017-06-12T18:13:30.482Z,26.03
2017-06-12T18:15:58.098Z,14.13
2017-06-12T18:18:26.478Z,14.93
2017-06-12T18:20:54.071Z,15.23
2017-06-12T18:23:21.661Z,15.20
2017-06-12T18:25:49.233Z,19.47
2017-06-12T18:28:16.829Z,14.77
2017-06-12T18:30:44.444Z,21.30
2017-06-12T18:33:12.870Z,13.53
2017-06-12T18:35:40.475Z,16.37
2017-06-12T18:38:08.050Z,17.30
2017-06-12T18:40:35.665Z,13.40
2017-06-12T18:43:03.287Z,10.70
2017-06-12T18:45:30.875Z,12.40
2017-06-12T18:47:58.463Z,13.60
2017-06-12T18:50:26.049Z,12.00
2017-06-12T18:52:53.654Z,10.30
2017-06-12T18:55:21.242Z,17.40
2017-06-12T18:57:48.834Z,16.90
2017-06-12T19:00:16.445Z,14.90
2017-06-12T19:02:44.767Z,8.70
2017-06-12T19:05:12.479Z,9.53
2017-06-12T19:07:40.049Z,9.70
2017-06-12T19:10:08.380Z,12.43
2017-06-12T19:22:22.802Z,16.87
2017-06-12T19:24:50.433Z,9.10
2017-06-12T19:27:18.021Z,9.00
2017-06-12T19:29:45.595Z,12.30
2017-06-12T19:32:13.191Z,15.80
2017-06-12T19:34:41.533Z,14.90
2017-06-12T19:37:09.170Z,13.00
2017-06-12T19:39:36.751Z,12.63
2017-06-12T19:42:04.334Z,13.20
2017-06-12T19:44:31.930Z,9.17
2017-06-12T19:47:00.991Z,9.53
2017-06-12T19:49:28.579Z,13.50
2017-06-12T19:51:56.130Z,9.80
2017-06-12T19:54:24.513Z,16.27
2017-06-12T19:56:53.584Z,12.00
2017-06-12T19:59:21.142Z,15.77
2017-06-12T20:01:48.726Z,12.23
2017-06-12T20:04:17.937Z,13.50
2017-06-12T20:06:45.537Z,13.13
2017-06-12T20:09:13.108Z,9.57
2017-06-12T20:11:40.690Z,14.70
2017-06-12T20:14:08.329Z,11.00
2017-06-12T20:16:35.910Z,13.13
2017-06-12T20:19:06.486Z,14.47
2017-06-12T20:21:34.087Z,22.07
2017-06-12T20:24:01.678Z,56.80
2017-06-12T20:26:30.018Z,41.57
2017-06-12T20:28:57.614Z,46.57
2017-06-12T20:31:25.202Z,24.53
2017-06-12T20:33:52.803Z,22.40
2017-06-12T20:36:20.369Z,17.00
2017-06-12T20:38:47.945Z,10.03
2017-06-12T20:41:15.605Z,13.77
2017-06-12T20:43:43.206Z,20.47
2017-06-12T20:46:10.790Z,17.33
2017-06-12T20:48:38.389Z,16.90
2017-06-12T20:51:05.966Z,11.97
2017-06-12T20:53:33.542Z,9.77
2017-06-12T20:56:01.866Z,12.47
2017-06-12T20:58:29.486Z,12.53
2017-06-12T21:00:57.810Z,17.00
2017-06-12T21:03:25.418Z,14.13
2017-06-12T21:05:53.009Z,12.73
2017-06-12T21:08:20.575Z,13.90
2017-06-12T21:10:48.134Z,8.17
2017-06-12T21:13:15.736Z,11.00
2017-06-12T21:15:43.297Z,22.63
2017-06-12T21:18:10.866Z,13.93
2017-06-12T21:20:38.549Z,9.93
2017-06-12T21:23:06.146Z,16.93
2017-06-12T21:25:33.734Z,9.67
2017-06-12T21:28:01.340Z,8.50
2017-06-12T21:30:29.691Z,8.97
2017-06-12T21:32:57.259Z,9.73
2017-06-12T21:35:25.097Z,14.80
2017-06-12T21:37:52.685Z,8.67
2017-06-12T21:40:20.249Z,12.00
2017-06-12T21:42:47.827Z,7.83
2017-06-12T21:45:16.154Z,8.67
2017-06-12T21:47:43.749Z,12.50
2017-06-12T21:50:11.322Z,8.03
2017-06-12T21:52:39.689Z,11.17
2017-06-12T21:55:07.272Z,12.83
2017-06-12T21:57:35.605Z,10.00
2017-06-12T22:00:03.185Z,12.73
2017-06-12T22:02:30.743Z,5.73
2017-06-12T22:04:58.340Z,11.40
2017-06-12T22:07:25.902Z,11.10
2017-06-12T22:09:53.453Z,8.10
2017-06-12T22:12:21.798Z,8.80
2017-06-12T22:14:49.356Z,11.37
2017-06-12T22:17:16.965Z,12.60
2017-06-12T22:19:44.599Z,12.93
2017-06-12T22:22:12.172Z,14.60
2017-06-12T22:24:40.517Z,16.97
2017-06-12T22:27:08.140Z,14.53
2017-06-12T22:29:35.708Z,14.27
2017-06-12T22:32:03.306Z,10.30
2017-06-12T22:34:30.878Z,16.20
2017-06-12T22:36:59.137Z,8.70
2017-06-12T22:39:26.838Z,6.93
2017-06-12T22:41:55.165Z,8.70
2017-06-12T22:44:22.751Z,9.83
2017-06-12T22:46:50.345Z,11.50
2017-06-12T22:49:17.905Z,11.40
2017-06-12T22:51:46.251Z,13.93
2017-06-12T22:54:13.809Z,7.93
2017-06-12T22:56:41.379Z,9.73
2017-06-12T22:59:08.961Z,9.30
2017-06-12T23:01:37.322Z,12.07
2017-06-12T23:04:04.916Z,11.63
2017-06-12T23:06:32.482Z,10.03
2017-06-12T23:09:00.074Z,10.53
2017-06-12T23:11:27.630Z,12.10
2017-06-12T23:13:55.205Z,12.43
2017-06-12T23:16:22.838Z,12.27
2017-06-12T23:18:50.393Z,12.23
2017-06-12T23:21:17.976Z,8.10
2017-06-12T23:23:45.533Z,8.50
2017-06-12T23:26:18.667Z,11.90
2017-06-12T23:28:46.257Z,9.73
2017-06-12T23:31:13.837Z,12.67
2017-06-12T23:33:41.364Z,8.50
2017-06-12T23:36:09.716Z,11.63
2017-06-12T23:38:37.270Z,8.73
2017-06-12T23:41:04.858Z,12.10
2017-06-12T23:43:33.196Z,8.93
2017-06-12T23:46:00.742Z,12.60
2017-06-12T23:48:28.336Z,12.60
2017-06-12T23:50:55.895Z,13.80
2017-06-12T23:53:23.445Z,11.43
2017-06-12T23:55:51.039Z,13.63
2017-06-12T23:58:19.365Z,9.07
